Main page
METAR-TAF:

METAR-TAF

Airports :

Léopold Sédar Senghor International Airport

Dakar, Senegal

latitude: 14-44N, longitude: 017-30W, elevation: 27 m

Current weather observation

The report was made 2 hours and 21 minutes ago, at 03:00 UTC
Wind 12 kt from the North
Temperature 20°C
Humidity 88%
Pressure 1011 hPa
Visibility: 8000 m

METAR: GOOY 200300Z 36012KT 8000 NSC 20/18 Q1011

Time: 05:21 (05:21 UTC)

Forecast

The report was made 5 hours and 51 minutes ago, at 23:30 UTC
Forecast valid from 20 at 00 UTC to 21 at 06 UTC
Wind 10 kt from the North
Visibility: 8000 m
Probability 30% :
Temporary
from 20 at 06 UTC to 20 at 08 UTC
Visibility: 4000 m
mist

TAF: GOOY 192330Z 2000/2106 35010KT 8000 NSC PROB30 TEMPO 2006/2008 4000 BR

Weather observations and forecasts of more than 4000 airports (METAR and TAF reports).

The available stations are represented by yellow and red dots on the map.

Hover mouse over dot to see the name of the station.

Then click to see weather observations and forecasts.

To change the map : click on the green buttons with a black cross to zoom in, on the green button with a dash to zoom out, or on the green arrows for adjacent maps.


METAR-TAF: